Navenby, United Kingdom
Current Conditions -  °F | °C
As of 7:50 PM on Monday 26 Jan 2015 (Local Time) from EGXW Reporting Station
Clear Clear  
Wind Chill: 33°   Ceiling: Unl
Heat Index: 39°   Visibility: 6mi
Dew Point: 34°   Wind: 9mph
Humidity: 81%   Direction: 290°WNW
Pressure: 30.24"   Gusts: NA
Location:  53.11°N, 0.52°W
Report Text: EGXW 261950Z 29008KT CAVOK 04/01 Q1024 BLU
Loading
Personal Weather Stations






























Interactive Weather Map New forecast layout! Learn more

10-Day Weather Forecast

Advertisements
Track Severe Weather on mobile